createdAt,value
2019-03-23T08:51:02.143Z,9.60
2019-03-23T08:53:31.565Z,9.50
2019-03-23T08:56:01.098Z,9.70
2019-03-23T08:58:29.497Z,9.80
2019-03-23T09:00:59.685Z,9.90
2019-03-23T09:03:29.734Z,10.10
2019-03-23T09:05:59.281Z,10.40
2019-03-23T09:08:28.698Z,10.40
2019-03-23T09:10:58.303Z,10.50
2019-03-23T09:13:40.042Z,10.70
2019-03-23T09:16:00.940Z,10.70
2019-03-23T09:18:30.558Z,10.90
2019-03-23T09:20:59.979Z,11.20
2019-03-23T09:23:29.688Z,11.30
2019-03-23T09:25:59.112Z,11.30
2019-03-23T09:28:28.679Z,11.40
2019-03-23T09:30:58.086Z,11.50
2019-03-23T09:33:28.678Z,11.60
2019-03-23T09:35:58.451Z,11.90
2019-03-23T09:38:27.825Z,12.00
2019-03-23T09:40:57.237Z,12.00
2019-03-23T09:43:26.869Z,12.00
2019-03-23T09:45:56.277Z,12.20
2019-03-23T09:48:29.006Z,12.50
2019-03-23T09:50:58.455Z,12.70
2019-03-23T09:53:28.090Z,12.70
2019-03-23T09:55:57.451Z,12.70
2019-03-23T09:58:27.221Z,12.80
2019-03-23T10:00:56.796Z,13.00
2019-03-23T10:03:26.187Z,13.10
2019-03-23T10:05:56.681Z,13.40
2019-03-23T10:08:26.295Z,13.30
2019-03-23T10:10:55.823Z,13.40
2019-03-23T10:13:25.471Z,13.70
2019-03-23T10:15:54.926Z,13.60
2019-03-23T10:18:24.515Z,13.90
2019-03-23T10:20:53.928Z,14.10
2019-03-23T10:23:23.658Z,14.30
2019-03-23T10:25:53.265Z,14.10
2019-03-23T10:28:22.667Z,14.40
2019-03-23T10:30:52.171Z,14.60
2019-03-23T10:33:26.605Z,14.90
2019-03-23T10:35:57.723Z,14.90
2019-03-23T10:38:29.435Z,15.00
2019-03-23T10:41:01.806Z,14.90
2019-03-23T10:43:31.236Z,15.10
2019-03-23T10:46:00.681Z,15.40
2019-03-23T10:48:30.074Z,15.40
2019-03-23T10:50:59.876Z,15.30
2019-03-23T10:53:29.588Z,15.50
2019-03-23T10:55:59.277Z,15.70
2019-03-23T10:58:28.868Z,16.10
2019-03-23T11:00:59.535Z,16.20
2019-03-23T11:03:32.982Z,15.90
2019-03-23T11:06:02.700Z,16.00
2019-03-23T11:08:32.285Z,16.30
2019-03-23T11:11:01.906Z,16.40
2019-03-23T11:13:31.399Z,16.50
2019-03-23T11:16:01.175Z,16.50
2019-03-23T11:18:30.682Z,16.40
2019-03-23T11:21:00.187Z,16.80
2019-03-23T11:23:29.781Z,16.80
2019-03-23T11:25:59.120Z,16.60
2019-03-23T11:28:28.940Z,16.80
2019-03-23T11:30:58.864Z,17.00
2019-03-23T11:33:28.467Z,17.30
2019-03-23T11:35:58.328Z,17.20
2019-03-23T11:38:28.801Z,17.40
2019-03-23T11:40:58.413Z,17.20
2019-03-23T11:43:28.158Z,17.40
2019-03-23T11:45:57.576Z,17.60
2019-03-23T11:48:33.025Z,18.10
2019-03-23T11:51:02.471Z,18.30
2019-03-23T11:53:31.879Z,18.40
2019-03-23T11:56:01.391Z,18.30
2019-03-23T11:58:31.004Z,18.40
2019-03-23T12:01:01.496Z,18.50
2019-03-23T12:03:30.932Z,18.60
2019-03-23T12:06:00.354Z,17.90
2019-03-23T12:08:29.891Z,17.80
2019-03-23T12:11:03.162Z,17.80
2019-03-23T12:13:30.742Z,17.90
2019-03-23T12:16:00.274Z,17.90
2019-03-23T12:18:31.341Z,17.70
2019-03-23T12:21:00.773Z,17.90
2019-03-23T12:23:30.337Z,18.50
2019-03-23T12:25:59.760Z,18.60
2019-03-23T12:28:29.168Z,19.00
2019-03-23T12:30:58.583Z,18.40
2019-03-23T12:33:28.219Z,18.30
2019-03-23T12:35:57.652Z,18.40
2019-03-23T12:38:27.169Z,18.60
2019-03-23T12:40:56.527Z,18.80
2019-03-23T12:43:26.394Z,18.80
2019-03-23T12:45:55.897Z,18.70
2019-03-23T12:48:25.379Z,18.50
2019-03-23T12:50:54.788Z,18.80
2019-03-23T12:53:24.176Z,18.90
2019-03-23T12:55:53.807Z,18.80
2019-03-23T12:58:23.214Z,18.90
2019-03-23T13:00:52.670Z,19.10
2019-03-23T13:03:22.229Z,19.10
2019-03-23T13:05:51.671Z,19.20
2019-03-23T13:08:21.080Z,19.40
2019-03-23T13:10:56.414Z,19.80
2019-03-23T13:13:25.843Z,19.80
2019-03-23T13:15:55.285Z,19.40
2019-03-23T13:18:27.432Z,19.60
2019-03-23T13:20:57.209Z,19.70
2019-03-23T13:23:30.786Z,19.90
2019-03-23T13:26:00.255Z,19.70
2019-03-23T13:28:29.692Z,19.50
2019-03-23T13:30:59.157Z,20.10
2019-03-23T13:33:28.565Z,20.50
2019-03-23T13:35:58.172Z,20.70
2019-03-23T13:38:27.609Z,20.60
2019-03-23T13:40:57.178Z,20.00
2019-03-23T13:43:30.267Z,20.10
2019-03-23T13:45:59.615Z,20.40
2019-03-23T13:48:29.040Z,20.60
2019-03-23T13:50:58.635Z,20.70
2019-03-23T13:53:27.998Z,20.60
2019-03-23T13:55:57.413Z,20.80
2019-03-23T13:58:26.832Z,21.10
2019-03-23T14:00:56.430Z,20.90
2019-03-23T14:03:29.790Z,20.40
2019-03-23T14:05:59.311Z,20.20
2019-03-23T14:08:28.781Z,20.50
2019-03-23T14:10:58.445Z,20.30
2019-03-23T14:13:30.479Z,20.50
2019-03-23T14:15:59.974Z,20.60
2019-03-23T14:18:29.542Z,20.80
2019-03-23T14:20:59.000Z,21.20
2019-03-23T14:23:28.403Z,21.00
2019-03-23T14:25:57.871Z,20.50
2019-03-23T14:28:27.306Z,20.50
2019-03-23T14:30:56.682Z,20.60
2019-03-23T14:33:26.572Z,20.80
2019-03-23T14:35:56.021Z,20.80
2019-03-23T14:38:31.106Z,21.00
2019-03-23T14:41:00.998Z,21.30
2019-03-23T14:43:31.124Z,21.30
2019-03-23T14:46:00.511Z,21.10
2019-03-23T14:48:30.068Z,21.00
2019-03-23T14:50:59.451Z,20.60
2019-03-23T14:53:28.882Z,20.80
2019-03-23T14:55:58.309Z,20.50
2019-03-23T14:58:32.032Z,20.50
2019-03-23T15:01:02.723Z,21.00
2019-03-23T15:03:32.179Z,21.10
2019-03-23T15:06:02.118Z,20.70
2019-03-23T15:08:39.003Z,20.90
2019-03-23T15:11:08.766Z,20.70
2019-03-23T15:13:38.280Z,20.60
2019-03-23T15:16:07.788Z,20.50
2019-03-23T15:18:37.672Z,20.40
2019-03-23T15:21:07.823Z,20.40
2019-03-23T15:23:38.185Z,20.60
2019-03-23T15:26:07.658Z,20.50
2019-03-23T15:28:37.434Z,20.80
2019-03-23T15:31:10.451Z,20.70
2019-03-23T15:33:39.866Z,20.60
2019-03-23T15:36:09.288Z,20.80
2019-03-23T15:38:39.004Z,20.60
2019-03-23T15:41:08.351Z,20.70
2019-03-23T15:43:37.736Z,20.80
2019-03-23T15:46:08.519Z,20.70
2019-03-23T15:48:37.857Z,20.70
2019-03-23T15:51:07.297Z,20.90
2019-03-23T15:53:36.736Z,20.70
2019-03-23T15:56:06.416Z,20.60
2019-03-23T15:58:35.753Z,20.50
2019-03-23T16:01:07.602Z,20.60
2019-03-23T16:03:37.166Z,20.40
2019-03-23T16:06:06.626Z,19.90
2019-03-23T16:08:36.048Z,19.90
2019-03-23T16:11:05.638Z,19.70
2019-03-23T16:13:35.267Z,19.50
2019-03-23T16:16:04.691Z,19.50
2019-03-23T16:18:34.101Z,19.50
2019-03-23T16:21:04.117Z,19.30
2019-03-23T16:23:35.043Z,19.30
2019-03-23T16:26:04.854Z,19.20
2019-03-23T16:28:34.315Z,19.00
2019-03-23T16:31:03.875Z,19.00
2019-03-23T16:33:33.573Z,18.90
2019-03-23T16:36:05.427Z,18.70
2019-03-23T16:38:34.761Z,18.30
2019-03-23T16:41:06.702Z,18.20
2019-03-23T16:43:36.534Z,18.10
2019-03-23T16:46:05.966Z,17.90
2019-03-23T16:48:35.508Z,17.90
2019-03-23T16:51:04.955Z,17.80
2019-03-23T16:53:34.625Z,17.60
2019-03-23T16:56:04.229Z,17.60
2019-03-23T16:58:33.725Z,17.40
2019-03-23T17:01:05.795Z,17.50
2019-03-23T17:03:35.534Z,17.40
2019-03-23T17:06:05.297Z,17.10
2019-03-23T17:08:35.619Z,16.90
2019-03-23T17:11:04.958Z,16.80
2019-03-23T17:13:34.565Z,16.80
2019-03-23T17:16:03.969Z,16.60
2019-03-23T17:18:33.326Z,16.70
2019-03-23T17:21:02.663Z,16.50
2019-03-23T17:23:33.625Z,16.70
2019-03-23T17:26:03.702Z,16.60
2019-03-23T17:28:33.397Z,16.50
2019-03-23T17:31:02.790Z,16.50
2019-03-23T17:33:33.562Z,16.40
2019-03-23T17:36:03.134Z,16.30
2019-03-23T17:38:33.200Z,16.30
2019-03-23T17:41:02.754Z,16.30
2019-03-23T17:43:32.334Z,15.80
2019-03-23T17:46:01.930Z,15.60
2019-03-23T17:48:31.833Z,15.70
2019-03-23T17:51:01.320Z,15.80
2019-03-23T17:53:30.873Z,15.60
2019-03-23T17:56:02.886Z,15.80
2019-03-23T17:58:32.846Z,15.90
2019-03-23T18:01:02.661Z,16.00
2019-03-23T18:03:32.653Z,16.00
2019-03-23T18:06:03.678Z,15.90
2019-03-23T18:08:35.098Z,15.90
2019-03-23T18:11:04.504Z,15.70
2019-03-23T18:13:34.114Z,15.60
2019-03-23T18:16:04.211Z,15.60
2019-03-23T18:18:33.989Z,15.50
2019-03-23T18:21:03.633Z,15.50
2019-03-23T18:23:33.395Z,15.40
2019-03-23T18:26:02.897Z,15.50
2019-03-23T18:28:32.283Z,15.40
2019-03-23T18:31:01.994Z,15.30
2019-03-23T18:33:37.186Z,15.20
2019-03-23T18:36:06.680Z,15.10
2019-03-23T18:38:36.239Z,15.00
2019-03-23T18:41:10.211Z,15.00
2019-03-23T18:43:36.902Z,15.00
2019-03-23T18:46:06.317Z,15.00
2019-03-23T18:48:35.735Z,14.80
2019-03-23T18:51:06.215Z,14.70
2019-03-23T18:53:36.001Z,14.60
2019-03-23T18:56:05.458Z,14.60
2019-03-23T18:58:34.867Z,14.70
2019-03-23T19:01:04.327Z,14.60
2019-03-23T19:03:33.662Z,14.60
2019-03-23T19:06:03.062Z,14.50
2019-03-23T19:08:32.758Z,14.50
2019-03-23T19:11:02.078Z,14.40
2019-03-23T19:13:37.872Z,14.40
2019-03-23T19:16:02.602Z,14.40
2019-03-23T19:18:32.186Z,14.20
2019-03-23T19:21:01.623Z,14.10
2019-03-23T19:23:34.461Z,14.10
2019-03-23T19:26:03.618Z,14.10
2019-03-23T19:28:32.981Z,14.20
2019-03-23T19:31:02.426Z,14.20
2019-03-23T19:33:31.718Z,14.00
2019-03-23T19:36:01.234Z,14.00
2019-03-23T19:38:30.639Z,14.00
2019-03-23T19:40:59.977Z,13.90
2019-03-23T19:43:29.304Z,13.90
2019-03-23T19:45:58.639Z,13.70
2019-03-23T19:48:28.142Z,13.70
2019-03-23T19:50:57.517Z,13.60
2019-03-23T19:53:28.300Z,13.50
2019-03-23T19:55:58.616Z,13.50
2019-03-23T19:58:28.171Z,13.40
2019-03-23T20:00:57.498Z,13.40
2019-03-23T20:03:26.838Z,13.60
2019-03-23T20:05:56.175Z,13.50
2019-03-23T20:08:28.649Z,13.40
2019-03-23T20:10:58.003Z,13.30
2019-03-23T20:13:27.521Z,13.20
2019-03-23T20:15:56.921Z,13.10
2019-03-23T20:18:26.334Z,12.60
2019-03-23T20:20:55.685Z,12.80
2019-03-23T20:23:25.107Z,12.90
2019-03-23T20:25:54.497Z,12.80
2019-03-23T20:28:28.355Z,12.80
2019-03-23T20:30:57.791Z,12.60
2019-03-23T20:33:27.441Z,12.20
2019-03-23T20:35:56.787Z,12.00
2019-03-23T20:38:26.228Z,12.50
2019-03-23T20:40:55.566Z,12.60
2019-03-23T20:43:29.475Z,12.50
2019-03-23T20:45:58.941Z,12.50
2019-03-23T20:48:28.276Z,12.70
2019-03-23T20:50:57.679Z,12.60
2019-03-23T20:53:27.250Z,12.60
2019-03-23T20:55:56.582Z,12.40
2019-03-23T20:58:26.133Z,12.50
2019-03-23T21:00:55.489Z,12.10
2019-03-23T21:03:28.041Z,12.30
2019-03-23T21:05:58.331Z,12.30
2019-03-23T21:08:31.026Z,12.20
2019-03-23T21:11:03.292Z,11.70
2019-03-23T21:13:32.681Z,11.90
2019-03-23T21:16:02.182Z,12.20
2019-03-23T21:18:31.763Z,12.30
2019-03-23T21:21:01.941Z,12.30
2019-03-23T21:23:31.298Z,12.40
2019-03-23T21:26:00.928Z,12.30
2019-03-23T21:28:30.370Z,12.30
2019-03-23T21:31:00.340Z,12.30
2019-03-23T21:33:32.070Z,12.30
2019-03-23T21:36:01.337Z,12.20
2019-03-23T21:38:30.786Z,12.20
2019-03-23T21:41:00.369Z,12.30
2019-03-23T21:43:29.770Z,12.20
2019-03-23T21:45:59.288Z,12.20
2019-03-23T21:48:30.746Z,11.90
2019-03-23T21:51:02.379Z,11.90
2019-03-23T21:53:35.333Z,11.90
2019-03-23T21:56:05.323Z,11.80
2019-03-23T21:58:34.930Z,11.90
2019-03-23T22:01:04.532Z,11.90
2019-03-23T22:03:33.947Z,11.80
2019-03-23T22:06:03.705Z,12.00
2019-03-23T22:08:33.101Z,12.20
2019-03-23T22:11:02.498Z,12.20
2019-03-23T22:13:31.820Z,12.20
2019-03-23T22:16:01.577Z,12.00
2019-03-23T22:18:30.946Z,11.90
2019-03-23T22:21:00.569Z,12.00
2019-03-23T22:23:30.141Z,12.00
2019-03-23T22:25:59.724Z,12.00
2019-03-23T22:28:29.232Z,12.00
2019-03-23T22:31:01.845Z,11.90
2019-03-23T22:33:31.175Z,11.90
2019-03-23T22:36:00.538Z,11.90
2019-03-23T22:38:31.467Z,11.90
2019-03-23T22:41:00.979Z,11.80
2019-03-23T22:43:30.403Z,11.70
2019-03-23T22:45:59.855Z,11.80
2019-03-23T22:48:29.321Z,11.90
2019-03-23T22:50:58.901Z,11.80
2019-03-23T22:53:28.272Z,11.70
2019-03-23T22:55:57.684Z,11.50
2019-03-23T22:58:27.428Z,11.60
2019-03-23T23:00:57.251Z,11.70
2019-03-23T23:03:27.941Z,11.60
2019-03-23T23:05:57.483Z,11.70
2019-03-23T23:08:26.862Z,11.70
2019-03-23T23:10:56.381Z,11.60
2019-03-23T23:13:28.363Z,11.50
2019-03-23T23:15:57.946Z,11.50
2019-03-23T23:18:27.324Z,11.50
2019-03-23T23:20:56.755Z,11.60
2019-03-23T23:23:27.320Z,11.50
2019-03-23T23:25:56.874Z,11.60
2019-03-23T23:28:26.274Z,11.50
2019-03-23T23:30:55.613Z,11.50
2019-03-23T23:33:24.964Z,11.50
2019-03-23T23:35:55.951Z,11.40
2019-03-23T23:38:25.371Z,11.50
2019-03-23T23:40:54.770Z,11.20
2019-03-23T23:43:24.118Z,11.30
2019-03-23T23:45:53.690Z,11.40
2019-03-23T23:48:23.183Z,11.20
2019-03-23T23:50:53.007Z,11.10
2019-03-23T23:53:22.358Z,11.00
2019-03-23T23:55:53.448Z,11.20
2019-03-23T23:58:23.670Z,11.20
